Time;durP1;ratioP1;P1;durP2;ratioP2;P2;SDS_P1;SDS_P2;PMS_P1;PMS_P2;Temp;Humidity;BMP_temperature;BMP_pressure;BME280_temperature;BME280_humidity;BME280_pressure;Samples;Min_cycle;Max_cycle;Signal;HPM_P1;HPM_P2
2022/09/27 00:02:27;;;;;;;2.78;1.40;;;;;;;;;;10570949;28;20040;-75
2022/09/27 00:07:31;;;;;;;2.83;1.17;;;;;;;;;;10569877;28;20183;-75
2022/09/27 00:12:39;;;;;;;3.10;1.50;;;;;;;;;;10548242;28;20105;-74
2022/09/27 00:17:42;;;;;;;2.25;1.20;;;;;;;;;;10551647;28;20050;-74
2022/09/27 00:22:49;;;;;;;2.20;1.48;;;;;;;;;;10552386;28;20126;-75
2022/09/27 00:27:54;;;;;;;3.42;1.52;;;;;;;;;;10549723;28;20507;-73
2022/09/27 00:32:57;;;;;;;4.93;2.03;;;;;;;;;;10570235;28;20243;-74
2022/09/27 00:38:01;;;;;;;5.10;1.88;;;;;;;;;;10551389;28;20047;-75
2022/09/27 00:43:17;;;;;;;2.70;1.30;;;;;;;;;;10570394;28;20057;-76
2022/09/27 00:48:23;;;;;;;2.63;1.35;;;;;;;;;;10553526;28;20043;-75
2022/09/27 00:53:29;;;;;;;3.30;1.80;;;;;;;;;;10572340;28;20449;-74
2022/09/27 00:58:36;;;;;;;2.88;1.60;;;;;;;;;;10555309;28;20113;-76
2022/09/27 01:03:44;;;;;;;3.17;1.80;;;;;;;;;;10572236;28;20044;-75
2022/09/27 01:08:49;;;;;;;1.92;0.98;;;;;;;;;;10572089;28;20039;-75
2022/09/27 01:14:05;;;;;;;2.55;1.40;;;;;;;;;;10556541;28;20095;-74
2022/09/27 01:19:15;;;;;;;2.63;1.50;;;;;;;;;;10568942;27;20082;-74
2022/09/27 01:24:26;;;;;;;1.42;0.90;;;;;;;;;;10567152;28;20068;-74
2022/09/27 01:29:34;;;;;;;2.92;1.70;;;;;;;;;;10549593;28;20066;-74
2022/09/27 01:34:45;;;;;;;2.22;0.70;;;;;;;;;;10550075;28;20036;-75
2022/09/27 01:39:52;;;;;;;3.03;1.60;;;;;;;;;;10568536;28;20122;-74
2022/09/27 01:45:01;;;;;;;4.85;1.70;;;;;;;;;;10549805;27;20500;-74
2022/09/27 01:50:11;;;;;;;5.47;2.22;;;;;;;;;;10536226;27;20516;-76
2022/09/27 01:55:25;;;;;;;3.85;1.90;;;;;;;;;;10568895;28;20063;-75
2022/09/27 02:00:31;;;;;;;3.53;1.10;;;;;;;;;;10552595;28;20120;-75
2022/09/27 02:05:40;;;;;;;5.50;2.28;;;;;;;;;;10552494;28;20044;-75
2022/09/27 02:10:45;;;;;;;4.57;1.73;;;;;;;;;;10554675;28;20044;-75
2022/09/27 02:16:01;;;;;;;3.53;1.73;;;;;;;;;;10553203;28;20049;-75
2022/09/27 02:21:12;;;;;;;2.65;1.42;;;;;;;;;;10532670;28;20039;-75
2022/09/27 02:26:18;;;;;;;3.20;1.50;;;;;;;;;;10567141;28;20389;-75
2022/09/27 02:31:25;;;;;;;4.60;2.10;;;;;;;;;;10570762;28;20044;-75
2022/09/27 02:36:32;;;;;;;2.90;1.65;;;;;;;;;;10564150;28;20035;-75
2022/09/27 02:41:48;;;;;;;5.32;2.25;;;;;;;;;;10564402;28;20050;-75
2022/09/27 02:47:04;;;;;;;4.63;2.15;;;;;;;;;;10568770;28;20058;-74
2022/09/27 02:52:18;;;;;;;5.47;1.35;;;;;;;;;;10559891;28;20079;-75
2022/09/27 02:57:30;;;;;;;5.68;2.90;;;;;;;;;;10545185;28;20116;-75
2022/09/27 03:02:43;;;;;;;4.72;2.30;;;;;;;;;;10544226;28;20055;-75
2022/09/27 03:07:49;;;;;;;3.97;2.00;;;;;;;;;;10564170;28;20178;-75
2022/09/27 03:12:57;;;;;;;4.28;2.60;;;;;;;;;;10549217;28;20111;-75
2022/09/27 03:18:06;;;;;;;5.97;2.55;;;;;;;;;;10563085;28;20047;-75
2022/09/27 03:23:16;;;;;;;3.53;1.35;;;;;;;;;;10558292;28;20119;-75
2022/09/27 03:28:24;;;;;;;1.45;1.05;;;;;;;;;;10547651;28;20067;-75
2022/09/27 03:33:30;;;;;;;8.45;2.42;;;;;;;;;;10563002;28;20047;-75
2022/09/27 03:38:38;;;;;;;6.53;2.75;;;;;;;;;;10543250;28;20040;-74
2022/09/27 03:43:56;;;;;;;5.38;2.20;;;;;;;;;;10531869;28;20050;-75
2022/09/27 03:49:03;;;;;;;2.90;1.75;;;;;;;;;;10546379;28;20385;-74
2022/09/27 03:54:16;;;;;;;3.25;1.55;;;;;;;;;;10544172;28;20583;-75
2022/09/27 03:59:21;;;;;;;5.38;2.40;;;;;;;;;;10548082;28;20044;-74
2022/09/27 04:04:26;;;;;;;3.47;2.03;;;;;;;;;;10548315;28;20512;-77
2022/09/27 04:09:36;;;;;;;4.13;2.55;;;;;;;;;;10544578;28;20043;-76
2022/09/27 04:14:49;;;;;;;4.78;2.65;;;;;;;;;;10565244;28;20416;-75
2022/09/27 04:19:57;;;;;;;7.85;2.28;;;;;;;;;;10561942;28;20048;-75
2022/09/27 04:25:04;;;;;;;0.88;0.40;;;;;;;;;;10562813;28;20031;-75
2022/09/27 04:30:11;;;;;;;5.97;2.10;;;;;;;;;;10555847;28;20142;-74
2022/09/27 04:40:42;;;;;;;4.30;2.38;;;;;;;;;;10537191;28;20488;-71
2022/09/27 04:45:46;;;;;;;5.22;1.95;;;;;;;;;;10552484;28;20055;-71
2022/09/27 04:50:56;;;;;;;1.02;0.65;;;;;;;;;;10571038;28;20511;-71
2022/09/27 04:56:07;;;;;;;2.28;1.52;;;;;;;;;;10568751;28;20039;-72
2022/09/27 05:01:17;;;;;;;1.75;1.13;;;;;;;;;;10570944;28;20040;-73
2022/09/27 05:06:22;;;;;;;1.80;1.05;;;;;;;;;;10555971;28;20051;-74
2022/09/27 05:11:28;;;;;;;4.05;1.83;;;;;;;;;;10551244;28;20720;-74
2022/09/27 05:16:37;;;;;;;2.22;1.13;;;;;;;;;;10575132;28;20122;-72
2022/09/27 05:21:45;;;;;;;0.82;0.60;;;;;;;;;;10566961;28;21249;-72
2022/09/27 05:26:50;;;;;;;1.70;1.30;;;;;;;;;;10563887;28;20062;-72
2022/09/27 05:32:03;;;;;;;1.25;0.93;;;;;;;;;;10568087;28;20040;-75
2022/09/27 05:37:11;;;;;;;3.30;1.38;;;;;;;;;;10571402;27;20052;-75
2022/09/27 05:42:20;;;;;;;2.10;1.20;;;;;;;;;;10553853;28;20130;-77
2022/09/27 05:47:24;;;;;;;1.38;0.90;;;;;;;;;;10554208;28;20040;-77
2022/09/27 05:52:29;;;;;;;0.85;0.52;;;;;;;;;;10546013;28;20074;-75
2022/09/27 05:57:42;;;;;;;1.30;0.65;;;;;;;;;;10569210;28;20038;-74
2022/09/27 06:03:04;;;;;;;1.15;0.60;;;;;;;;;;10567176;28;20097;-75
2022/09/27 06:08:11;;;;;;;1.55;0.80;;;;;;;;;;10571247;28;20039;-75
2022/09/27 06:13:18;;;;;;;2.35;0.88;;;;;;;;;;10567342;28;20063;-76
2022/09/27 06:18:22;;;;;;;0.93;0.70;;;;;;;;;;10567253;27;20534;-75
2022/09/27 06:23:26;;;;;;;1.65;0.50;;;;;;;;;;10551031;28;20047;-75
2022/09/27 06:28:37;;;;;;;0.75;0.50;;;;;;;;;;10550260;27;20063;-77
2022/09/27 06:33:47;;;;;;;1.95;0.68;;;;;;;;;;10567876;27;20071;-76
2022/09/27 06:39:00;;;;;;;0.60;0.55;;;;;;;;;;10550970;28;20031;-76
2022/09/27 06:44:06;;;;;;;0.82;0.50;;;;;;;;;;10567426;28;20515;-76
2022/09/27 06:49:15;;;;;;;1.20;0.73;;;;;;;;;;10569656;28;20241;-76
2022/09/27 06:54:22;;;;;;;1.58;1.00;;;;;;;;;;10568157;28;20438;-76
2022/09/27 07:04:55;;;;;;;1.63;0.85;;;;;;;;;;10548360;28;20046;-77
2022/09/27 07:10:04;;;;;;;4.18;0.80;;;;;;;;;;10562973;28;20059;-76
2022/09/27 07:15:12;;;;;;;0.75;0.68;;;;;;;;;;10535590;28;20066;-76
2022/09/27 07:20:20;;;;;;;1.60;0.98;;;;;;;;;;10554033;28;20086;-77
2022/09/27 07:25:28;;;;;;;1.80;0.80;;;;;;;;;;10550551;28;20101;-76
2022/09/27 07:30:34;;;;;;;4.57;0.93;;;;;;;;;;10534073;28;20126;-76
2022/09/27 07:35:49;;;;;;;3.88;0.80;;;;;;;;;;10566180;28;20377;-76
2022/09/27 07:41:00;;;;;;;2.40;0.80;;;;;;;;;;10567021;28;20040;-76
2022/09/27 07:46:03;;;;;;;2.53;0.75;;;;;;;;;;10565632;28;20382;-76
2022/09/27 07:51:21;;;;;;;0.47;0.40;;;;;;;;;;10566143;28;20061;-75
2022/09/27 07:56:27;;;;;;;1.38;0.73;;;;;;;;;;10533610;28;20170;-76
2022/09/27 08:01:33;;;;;;;0.80;0.80;;;;;;;;;;10569057;28;20134;-76
2022/09/27 08:06:39;;;;;;;0.82;0.40;;;;;;;;;;10553438;28;20074;-77
2022/09/27 08:11:51;;;;;;;0.95;0.32;;;;;;;;;;10558825;27;20044;-76
2022/09/27 08:16:57;;;;;;;0.47;0.20;;;;;;;;;;10579860;28;20036;-76
2022/09/27 08:22:10;;;;;;;0.20;0.20;;;;;;;;;;10575774;28;20054;-76
2022/09/27 08:27:17;;;;;;;0.20;0.20;;;;;;;;;;10554991;28;20040;-76
2022/09/27 08:32:27;;;;;;;0.13;0.10;;;;;;;;;;10553117;28;20077;-76
2022/09/27 08:37:33;;;;;;;1.73;0.30;;;;;;;;;;10571754;28;20408;-76
2022/09/27 08:42:57;;;;;;;1.15;0.40;;;;;;;;;;10575074;28;20050;-76
2022/09/27 08:48:11;;;;;;;0.55;0.55;;;;;;;;;;10554116;28;20074;-76
2022/09/27 08:53:29;;;;;;;0.55;0.40;;;;;;;;;;10570212;28;20043;-78
2022/09/27 08:58:38;;;;;;;1.35;0.90;;;;;;;;;;10573424;28;20048;-76
2022/09/27 09:03:46;;;;;;;0.95;0.35;;;;;;;;;;10572449;28;20036;-75
2022/09/27 09:09:03;;;;;;;0.57;0.40;;;;;;;;;;10537304;28;20122;-74
2022/09/27 09:14:14;;;;;;;0.70;0.70;;;;;;;;;;10572975;28;20036;-75
2022/09/27 09:19:41;;;;;;;0.77;0.60;;;;;;;;;;10555530;28;20519;-75
2022/09/27 09:24:54;;;;;;;1.40;1.00;;;;;;;;;;10551870;28;20056;-75
2022/09/27 09:30:05;;;;;;;1.58;1.20;;;;;;;;;;10585246;27;20047;-76
2022/09/27 09:35:20;;;;;;;0.98;0.98;;;;;;;;;;10568832;28;20036;-75
2022/09/27 09:40:31;;;;;;;0.60;0.45;;;;;;;;;;10554477;28;20116;-76
2022/09/27 09:45:41;;;;;;;0.40;0.40;;;;;;;;;;10549476;28;20039;-77
2022/09/27 09:50:48;;;;;;;1.85;0.50;;;;;;;;;;10570336;27;20137;-76
2022/09/27 09:55:57;;;;;;;1.42;0.45;;;;;;;;;;10527090;28;20051;-75
2022/09/27 10:01:11;;;;;;;2.35;0.40;;;;;;;;;;10550201;28;20067;-74
2022/09/27 10:06:19;;;;;;;0.98;0.40;;;;;;;;;;10551728;28;20043;-75
2022/09/27 10:11:34;;;;;;;0.50;0.50;;;;;;;;;;10560854;28;20051;-75
2022/09/27 10:16:47;;;;;;;0.60;0.40;;;;;;;;;;10571369;28;20050;-75
2022/09/27 10:21:55;;;;;;;0.68;0.50;;;;;;;;;;10572352;28;20059;-75
2022/09/27 10:27:08;;;;;;;1.40;0.40;;;;;;;;;;10576336;28;20039;-76
2022/09/27 10:32:26;;;;;;;0.20;0.20;;;;;;;;;;10569890;28;20047;-75
2022/09/27 10:37:39;;;;;;;0.60;0.50;;;;;;;;;;10566286;28;20501;-75
2022/09/27 10:42:48;;;;;;;0.77;0.60;;;;;;;;;;10565638;28;20060;-75
2022/09/27 10:47:59;;;;;;;0.30;0.30;;;;;;;;;;10548471;28;20032;-76
2022/09/27 10:53:05;;;;;;;0.95;0.45;;;;;;;;;;10565695;28;20039;-75
2022/09/27 11:03:39;;;;;;;1.85;1.20;;;;;;;;;;10549221;28;20043;-77
2022/09/27 11:08:50;;;;;;;2.55;1.70;;;;;;;;;;10549903;28;20140;-76
2022/09/27 11:14:07;;;;;;;1.75;1.58;;;;;;;;;;10516379;28;20089;-75
2022/09/27 11:19:16;;;;;;;2.35;1.50;;;;;;;;;;10525923;28;20533;-75
2022/09/27 11:24:42;;;;;;;1.02;0.68;;;;;;;;;;10559313;27;20131;-75
2022/09/27 11:29:56;;;;;;;2.03;1.08;;;;;;;;;;10567177;28;20523;-76
2022/09/27 11:35:06;;;;;;;0.98;0.63;;;;;;;;;;10549752;28;20097;-76
2022/09/27 11:40:17;;;;;;;0.32;0.30;;;;;;;;;;10568699;28;20401;-76
2022/09/27 11:45:27;;;;;;;2.58;1.38;;;;;;;;;;10576699;28;20079;-75
2022/09/27 11:51:04;;;;;;;1.20;0.77;;;;;;;;;;10575218;27;20039;-77
2022/09/27 11:56:20;;;;;;;1.30;1.20;;;;;;;;;;10554740;28;20047;-75
2022/09/27 12:01:40;;;;;;;0.40;0.40;;;;;;;;;;10567878;28;20043;-75
2022/09/27 12:06:48;;;;;;;;;;;;;;;;;;10564684;28;20060;-75
2022/09/27 12:12:04;;;;;;;1.88;0.52;;;;;;;;;;10555431;28;19934;-75
2022/09/27 12:17:14;;;;;;;1.17;0.70;;;;;;;;;;10548079;28;20050;-77
2022/09/27 12:22:22;;;;;;;4.53;0.77;;;;;;;;;;10547134;28;20042;-75
2022/09/27 12:28:00;;;;;;;1.23;1.02;;;;;;;;;;10555103;28;20068;-76
2022/09/27 12:33:21;;;;;;;1.88;0.73;;;;;;;;;;10549526;28;20051;-76
2022/09/27 12:38:41;;;;;;;1.38;0.85;;;;;;;;;;10550705;28;20519;-74
2022/09/27 12:43:48;;;;;;;2.47;1.60;;;;;;;;;;10554761;28;20114;-75
2022/09/27 12:48:59;;;;;;;1.38;0.80;;;;;;;;;;10575305;28;20054;-76
2022/09/27 12:59:56;;;;;;;;;;;;;;;;;;10396033;28;20200;-77
2022/09/27 13:05:13;;;;;;;0.80;0.80;;;;;;;;;;10571696;28;20031;-76
2022/09/27 13:10:29;;;;;;;2.10;1.10;;;;;;;;;;10575368;28;20039;-77
2022/09/27 13:15:38;;;;;;;1.83;1.17;;;;;;;;;;10565146;28;20097;-76
2022/09/27 13:21:09;;;;;;;0.82;0.60;;;;;;;;;;10569186;28;20584;-75
2022/09/27 13:26:32;;;;;;;2.08;0.85;;;;;;;;;;10573825;27;20532;-77
2022/09/27 13:31:57;;;;;;;1.83;0.80;;;;;;;;;;10571423;27;20036;-77
2022/09/27 13:37:30;;;;;;;1.23;0.50;;;;;;;;;;10557596;28;20130;-76
2022/09/27 13:42:40;;;;;;;0.68;0.32;;;;;;;;;;10549490;28;20039;-76
2022/09/27 13:47:51;;;;;;;0.60;0.40;;;;;;;;;;10553716;28;20266;-76
2022/09/27 13:53:03;;;;;;;1.48;0.30;;;;;;;;;;10562921;28;20330;-75
2022/09/27 13:58:17;;;;;;;0.65;0.40;;;;;;;;;;10535238;28;20039;-75
2022/09/27 14:03:29;;;;;;;0.60;0.40;;;;;;;;;;10583865;27;20109;-77
2022/09/27 14:08:37;;;;;;;7.45;0.70;;;;;;;;;;10576184;28;20039;-76
2022/09/27 14:13:46;;;;;;;1.67;0.60;;;;;;;;;;10571740;28;20242;-76
2022/09/27 14:18:56;;;;;;;0.93;0.60;;;;;;;;;;10551481;28;20043;-76
2022/09/27 14:24:20;;;;;;;1.80;0.85;;;;;;;;;;10567176;28;20046;-76
2022/09/27 14:29:39;;;;;;;0.95;0.50;;;;;;;;;;10550450;28;20039;-76
2022/09/27 14:34:48;;;;;;;1.88;0.50;;;;;;;;;;10566783;28;20128;-77
2022/09/27 14:39:57;;;;;;;0.40;0.32;;;;;;;;;;10552761;28;20043;-76
2022/09/27 14:45:21;;;;;;;2.65;0.63;;;;;;;;;;10548551;28;20047;-77
2022/09/27 14:50:32;;;;;;;1.85;0.60;;;;;;;;;;10567658;28;20488;-76
2022/09/27 14:55:40;;;;;;;0.47;0.40;;;;;;;;;;10569493;28;20104;-76
2022/09/27 15:06:48;;;;;;;0.95;0.73;;;;;;;;;;10577212;28;20135;-75
2022/09/27 15:24:16;;;;;;;3.00;1.05;;;;;;;;;;10571950;28;20042;-73
2022/09/27 15:29:39;;;;;;;;;;;;;;;;;;10589664;28;20028;-76
2022/09/27 15:34:46;;;;;;;1.25;0.63;;;;;;;;;;10583213;28;19926;-76
2022/09/27 15:39:51;;;;;;;1.73;0.80;;;;;;;;;;10566878;28;20043;-76
2022/09/27 15:45:01;;;;;;;2.35;0.90;;;;;;;;;;10533446;28;20055;-76
2022/09/27 15:50:23;;;;;;;1.35;0.98;;;;;;;;;;10566300;28;20138;-75
2022/09/27 15:55:32;;;;;;;6.30;2.42;;;;;;;;;;10562914;28;20046;-76
2022/09/27 16:00:51;;;;;;;0.30;0.30;;;;;;;;;;10548845;28;20142;-75
2022/09/27 16:05:56;;;;;;;4.85;0.98;;;;;;;;;;10547772;28;20043;-74
2022/09/27 16:11:07;;;;;;;6.40;1.85;;;;;;;;;;10546887;28;20035;-76
2022/09/27 16:16:19;;;;;;;1.35;0.80;;;;;;;;;;10567409;28;20079;-76
2022/09/27 16:21:24;;;;;;;1.80;0.85;;;;;;;;;;10541217;28;20032;-74
2022/09/27 16:26:32;;;;;;;1.67;0.80;;;;;;;;;;10565285;28;20106;-76
2022/09/27 16:31:38;;;;;;;3.13;1.30;;;;;;;;;;10563311;28;20062;-76
2022/09/27 16:36:44;;;;;;;1.50;0.80;;;;;;;;;;10592571;27;20615;-75
2022/09/27 16:41:54;;;;;;;2.35;0.88;;;;;;;;;;10589768;28;20036;-75
2022/09/27 16:47:06;;;;;;;;;;;;;;;;;;10606143;27;20042;-75
2022/09/27 16:52:11;;;;;;;0.95;0.63;;;;;;;;;;10584045;27;19930;-75
2022/09/27 16:57:18;;;;;;;1.80;0.98;;;;;;;;;;10561301;28;20393;-75
2022/09/27 17:02:25;;;;;;;1.88;1.00;;;;;;;;;;10580116;28;20031;-76
2022/09/27 17:07:30;;;;;;;1.50;1.00;;;;;;;;;;10540500;27;20043;-75
2022/09/27 17:12:39;;;;;;;0.88;0.80;;;;;;;;;;10555053;28;20285;-76
2022/09/27 17:17:44;;;;;;;2.00;0.73;;;;;;;;;;10568839;28;20047;-75
2022/09/27 17:22:50;;;;;;;0.75;0.63;;;;;;;;;;10545827;28;20075;-75
2022/09/27 17:28:01;;;;;;;3.50;1.20;;;;;;;;;;10566938;28;20127;-76
2022/09/27 17:33:13;;;;;;;1.73;0.90;;;;;;;;;;10568274;28;20054;-75
2022/09/27 17:38:21;;;;;;;3.13;1.45;;;;;;;;;;10560140;28;20128;-75
2022/09/27 17:43:57;;;;;;;3.05;1.23;;;;;;;;;;10577028;27;20066;-75
2022/09/27 17:54:45;;;;;;;1.50;0.73;;;;;;;;;;10553570;28;20068;-75
2022/09/27 17:59:52;;;;;;;1.73;1.00;;;;;;;;;;10568803;28;20051;-75
2022/09/27 18:04:57;;;;;;;1.35;0.73;;;;;;;;;;10568401;28;20449;-76
2022/09/27 18:10:03;;;;;;;2.47;0.93;;;;;;;;;;10539119;28;20423;-76
2022/09/27 18:15:20;;;;;;;4.75;1.10;;;;;;;;;;10583691;27;20032;-76
2022/09/27 18:20:56;;;;;;;1.88;0.93;;;;;;;;;;10541305;28;20054;-75
2022/09/27 18:26:07;;;;;;;1.73;1.10;;;;;;;;;;10550963;28;20450;-75
2022/09/27 18:31:17;;;;;;;4.63;0.75;;;;;;;;;;10567816;28;20044;-75
2022/09/27 18:41:56;;;;;;;1.00;0.63;;;;;;;;;;10550121;28;20036;-75
2022/09/27 18:52:39;;;;;;;;;;;;;;;;;;10563523;28;20084;-75
2022/09/27 19:03:28;;;;;;;0.38;0.38;;;;;;;;;;10611289;27;20168;-74
2022/09/27 19:08:31;;;;;;;0.47;0.47;;;;;;;;;;10605070;27;20073;-75
2022/09/27 19:13:34;;;;;;;0.70;0.60;;;;;;;;;;10608716;27;20134;-75
2022/09/27 19:18:52;;;;;;;0.40;0.30;;;;;;;;;;10611365;27;20122;-73
2022/09/27 19:23:55;;;;;;;1.45;0.50;;;;;;;;;;10602159;27;20130;-74
2022/09/27 19:28:58;;;;;;;1.40;1.07;;;;;;;;;;10606590;27;20115;-77
2022/09/27 19:34:02;;;;;;;0.40;0.20;;;;;;;;;;10607064;27;20445;-74
2022/09/27 19:39:05;;;;;;;0.60;0.57;;;;;;;;;;10608454;27;20139;-74
2022/09/27 19:44:08;;;;;;;0.60;0.50;;;;;;;;;;10611822;27;20043;-74
2022/09/27 19:49:13;;;;;;;3.70;1.00;;;;;;;;;;10605876;27;20400;-73
2022/09/27 19:54:21;;;;;;;2.38;0.82;;;;;;;;;;10604000;27;20047;-73
2022/09/27 19:59:24;;;;;;;2.35;0.63;;;;;;;;;;10608955;27;20027;-75
2022/09/27 20:04:29;;;;;;;0.52;0.52;;;;;;;;;;10602517;27;20559;-75
2022/09/27 20:09:32;;;;;;;1.23;1.10;;;;;;;;;;10603369;27;20123;-75
2022/09/27 20:14:35;;;;;;;1.02;0.68;;;;;;;;;;10576595;27;20040;-75
2022/09/27 20:19:39;;;;;;;1.70;0.70;;;;;;;;;;10576538;27;20035;-76
2022/09/27 20:24:41;;;;;;;;;;;;;;;;;;10569570;27;20047;-75
2022/09/27 20:29:46;;;;;;;0.85;0.85;;;;;;;;;;10576497;27;19926;-75
2022/09/27 20:34:51;;;;;;;0.40;0.40;;;;;;;;;;10568866;27;20039;-75
2022/09/27 20:39:54;;;;;;;2.45;0.60;;;;;;;;;;10555745;27;20044;-75
2022/09/27 20:44:57;;;;;;;0.32;0.32;;;;;;;;;;10552007;27;20063;-75
2022/09/27 20:50:04;;;;;;;1.05;0.35;;;;;;;;;;10572249;27;20042;-77
2022/09/27 20:55:07;;;;;;;1.30;0.60;;;;;;;;;;10574024;27;20042;-76
2022/09/27 21:00:11;;;;;;;0.30;0.30;;;;;;;;;;10575130;27;20035;-75
2022/09/27 21:05:15;;;;;;;0.20;0.20;;;;;;;;;;10567046;27;20040;-75
2022/09/27 21:10:18;;;;;;;0.30;0.30;;;;;;;;;;10577097;27;20349;-76
2022/09/27 21:15:21;;;;;;;0.73;0.50;;;;;;;;;;10569455;27;20370;-75
2022/09/27 21:20:25;;;;;;;2.95;1.25;;;;;;;;;;10568690;28;20054;-75
2022/09/27 21:25:28;;;;;;;9.05;1.85;;;;;;;;;;10570601;27;20054;-76
2022/09/27 21:30:36;;;;;;;9.02;2.58;;;;;;;;;;10572209;27;20083;-75
2022/09/27 21:35:49;;;;;;;4.13;1.27;;;;;;;;;;10570038;27;20562;-75
2022/09/27 21:40:56;;;;;;;19.88;3.92;;;;;;;;;;10573423;27;20043;-74
2022/09/27 21:46:02;;;;;;;12.48;2.80;;;;;;;;;;10571524;27;20039;-75
2022/09/27 21:51:07;;;;;;;6.05;1.58;;;;;;;;;;10552672;28;20427;-74
2022/09/27 21:56:10;;;;;;;17.40;3.88;;;;;;;;;;10569778;27;20046;-75
2022/09/27 22:01:15;;;;;;;2.15;0.70;;;;;;;;;;10569561;27;20051;-76
2022/09/27 22:06:20;;;;;;;0.40;0.40;;;;;;;;;;10572489;27;20135;-75
2022/09/27 22:11:25;;;;;;;1.23;0.20;;;;;;;;;;10568579;27;20081;-75
2022/09/27 22:16:28;;;;;;;0.20;0.10;;;;;;;;;;10568001;27;20064;-75
2022/09/27 22:21:34;;;;;;;0.63;0.30;;;;;;;;;;10567761;28;20312;-75
2022/09/27 22:26:38;;;;;;;0.20;0.10;;;;;;;;;;10578791;27;20043;-76
2022/09/27 22:31:43;;;;;;;1.33;0.52;;;;;;;;;;10575271;27;20135;-75
2022/09/27 22:36:49;;;;;;;0.30;0.22;;;;;;;;;;10577215;27;20489;-74
2022/09/27 22:41:52;;;;;;;0.32;0.32;;;;;;;;;;10577795;27;20031;-75
2022/09/27 22:46:55;;;;;;;0.30;0.22;;;;;;;;;;10570092;27;20036;-75
2022/09/27 22:52:01;;;;;;;0.80;0.40;;;;;;;;;;10569278;28;20035;-75
2022/09/27 22:57:04;;;;;;;0.35;0.35;;;;;;;;;;10563761;27;20508;-77
2022/09/27 23:02:07;;;;;;;0.13;0.13;;;;;;;;;;10555764;28;20057;-75
2022/09/27 23:07:23;;;;;;;0.47;0.30;;;;;;;;;;10562580;28;20038;-75
2022/09/27 23:12:26;;;;;;;0.93;0.60;;;;;;;;;;10568011;28;20027;-75
2022/09/27 23:17:31;;;;;;;0.85;0.55;;;;;;;;;;10566757;28;20285;-75
2022/09/27 23:22:36;;;;;;;0.30;0.30;;;;;;;;;;10567813;28;20043;-75
2022/09/27 23:27:45;;;;;;;0.57;0.50;;;;;;;;;;10566900;28;20047;-75
2022/09/27 23:32:52;;;;;;;3.22;0.50;;;;;;;;;;10565328;28;20229;-75
2022/09/27 23:37:56;;;;;;;0.93;0.50;;;;;;;;;;10564836;28;20092;-74
2022/09/27 23:43:00;;;;;;;0.45;0.45;;;;;;;;;;10572816;28;20031;-74
2022/09/27 23:48:04;;;;;;;0.85;0.30;;;;;;;;;;10563477;27;20055;-75
2022/09/27 23:53:08;;;;;;;0.23;0.23;;;;;;;;;;10546889;27;20040;-76
2022/09/27 23:58:10;;;;;;;;;;;;;;;;;;10575829;27;20106;-75
